Time,TemperatureF,DewpointF,PressureIn,WindDirection,WindDirectionDegrees,WindSpeedMPH,WindSpeedGustMPH,Humidity,HourlyPrecipIn,Conditions,Clouds,dailyrainin,SolarRadiationWatts/m^2,SoftwareType,DateUTC
2013-01-07 00:02:00,27.0,27.0,-100.00,ENE,71,0.0,11.0,100,0.00,,,0.04,0.000000,,2013-01-07 08:02:00,
2013-01-07 00:22:00,27.0,27.0,-100.00,ENE,71,0.0,11.0,100,0.00,,,0.04,0.000000,,2013-01-07 08:22:00,
2013-01-07 00:33:00,27.0,27.0,-100.00,ENE,71,0.0,11.0,100,0.00,,,0.04,0.000000,,2013-01-07 08:33:00,
2013-01-07 00:43:00,27.0,27.0,-100.00,ENE,71,0.0,11.0,100,0.00,,,0.04,0.000000,,2013-01-07 08:43:00,
2013-01-07 00:53:00,27.0,27.0,-100.00,ENE,71,0.0,11.0,100,0.00,,,0.04,0.000000,,2013-01-07 08:53:00,
2013-01-07 01:02:00,26.0,26.0,-100.00,NNW,338,0.0,6.0,100,0.00,,,-99.99,0.000000,,2013-01-07 09:02:00,
2013-01-07 01:32:00,26.0,26.0,-100.00,NNW,338,0.0,6.0,100,0.00,,,-99.99,0.000000,,2013-01-07 09:32:00,
2013-01-07 01:42:00,26.0,26.0,-100.00,NNW,338,0.0,6.0,100,0.00,,,-99.99,0.000000,,2013-01-07 09:42:00,
2013-01-07 01:52:00,26.0,26.0,-100.00,NNW,338,0.0,6.0,100,0.00,,,-99.99,0.000000,,2013-01-07 09:52:00,
2013-01-07 02:02:00,25.0,25.0,-100.00,SE,129,1.0,8.0,100,0.00,,,0.04,0.000000,,2013-01-07 10:02:00,
2013-01-07 02:33:00,25.0,25.0,-100.00,SE,129,1.0,8.0,100,0.00,,,0.04,0.000000,,2013-01-07 10:33:00,
2013-01-07 02:42:00,25.0,25.0,-100.00,SE,129,1.0,8.0,100,0.00,,,0.04,0.000000,,2013-01-07 10:42:00,
2013-01-07 02:52:00,25.0,25.0,-100.00,SE,129,1.0,8.0,100,0.00,,,0.04,0.000000,,2013-01-07 10:52:00,
2013-01-07 03:02:00,28.0,20.0,-100.00,ENE,62,1.0,11.0,71,0.00,,,0.04,0.000000,,2013-01-07 11:02:00,
2013-01-07 03:33:00,28.0,20.0,-100.00,ENE,62,1.0,11.0,71,0.00,,,0.04,0.000000,,2013-01-07 11:33:00,
2013-01-07 03:43:00,28.0,20.0,-100.00,ENE,62,1.0,11.0,71,0.00,,,0.04,0.000000,,2013-01-07 11:43:00,
2013-01-07 03:53:00,28.0,20.0,-100.00,ENE,62,1.0,11.0,71,0.00,,,0.04,0.000000,,2013-01-07 11:53:00,
2013-01-07 04:02:00,28.0,22.0,-100.00,East,87,0.0,5.0,77,0.00,,,0.04,0.000000,,2013-01-07 12:02:00,
2013-01-07 04:23:00,28.0,22.0,-100.00,East,87,0.0,5.0,77,0.00,,,0.04,0.000000,,2013-01-07 12:23:00,
2013-01-07 04:33:00,28.0,22.0,-100.00,East,87,0.0,5.0,77,0.00,,,0.04,0.000000,,2013-01-07 12:33:00,
2013-01-07 04:43:00,28.0,22.0,-100.00,East,87,0.0,5.0,77,0.00,,,0.04,0.000000,,2013-01-07 12:43:00,
2013-01-07 04:53:00,28.0,22.0,-100.00,East,87,0.0,5.0,77,0.00,,,0.04,0.000000,,2013-01-07 12:53:00,
2013-01-07 05:23:00,26.0,26.0,-100.00,SSE,150,0.0,5.0,99,0.00,,,0.04,0.000000,,2013-01-07 13:23:00,
2013-01-07 06:02:00,26.0,23.0,-100.00,East,91,0.0,7.0,88,0.00,,,0.04,0.000000,,2013-01-07 14:02:00,
2013-01-07 06:33:00,26.0,23.0,-100.00,East,91,0.0,7.0,88,0.00,,,0.04,0.000000,,2013-01-07 14:33:00,
2013-01-07 06:43:00,26.0,23.0,-100.00,East,91,0.0,7.0,88,0.00,,,0.04,0.000000,,2013-01-07 14:43:00,
2013-01-07 06:53:00,26.0,23.0,-100.00,East,91,0.0,7.0,88,0.00,,,0.04,0.000000,,2013-01-07 14:53:00,
2013-01-07 07:02:00,25.0,18.0,-100.00,SE,143,0.0,5.0,75,0.00,,,0.04,0.000000,,2013-01-07 15:02:00,
2013-01-07 07:23:00,25.0,18.0,-100.00,SE,143,0.0,5.0,75,0.00,,,0.04,0.000000,,2013-01-07 15:23:00,
2013-01-07 07:33:00,25.0,18.0,-100.00,SE,143,0.0,5.0,75,0.00,,,0.04,0.000000,,2013-01-07 15:33:00,
2013-01-07 07:43:00,25.0,18.0,-100.00,SE,143,0.0,5.0,75,0.00,,,0.04,0.000000,,2013-01-07 15:43:00,
2013-01-07 07:53:00,25.0,18.0,-100.00,SE,143,0.0,5.0,75,0.00,,,0.04,0.000000,,2013-01-07 15:53:00,
2013-01-07 08:33:00,26.0,25.0,-100.00,WSW,237,0.0,6.0,95,-99.99,,,-99.99,11.000000,,2013-01-07 16:33:00,
2013-01-07 09:02:00,30.0,20.0,-100.00,South,176,0.0,6.0,66,-99.99,,,0.04,68.000000,,2013-01-07 17:02:00,
2013-01-07 09:23:00,30.0,20.0,-100.00,South,176,0.0,6.0,66,-99.99,,,0.04,68.000000,,2013-01-07 17:23:00,
2013-01-07 09:33:00,30.0,20.0,-100.00,South,176,0.0,6.0,66,-99.99,,,0.04,68.000000,,2013-01-07 17:33:00,
2013-01-07 09:42:00,30.0,20.0,-100.00,South,176,0.0,6.0,66,-99.99,,,0.04,68.000000,,2013-01-07 17:42:00,
2013-01-07 09:53:00,30.0,20.0,-100.00,South,176,0.0,6.0,66,-99.99,,,0.04,68.000000,,2013-01-07 17:53:00,
2013-01-07 10:02:00,35.0,20.0,-100.00,SE,143,0.0,6.0,55,0.00,,,0.04,170.000000,,2013-01-07 18:02:00,
2013-01-07 10:33:00,35.0,20.0,-100.00,SE,143,0.0,6.0,55,0.00,,,0.04,170.000000,,2013-01-07 18:33:00,
2013-01-07 10:43:00,35.0,20.0,-100.00,SE,143,0.0,6.0,55,0.00,,,0.04,170.000000,,2013-01-07 18:43:00,
2013-01-07 10:53:00,35.0,20.0,-100.00,SE,143,0.0,6.0,55,0.00,,,0.04,170.000000,,2013-01-07 18:53:00,
2013-01-07 11:02:00,46.0,25.0,-100.00,NNW,346,3.0,8.0,43,0.03,,,0.07,315.000000,,2013-01-07 19:02:00,
2013-01-07 11:33:00,46.0,25.0,-100.00,NNW,346,3.0,8.0,43,0.03,,,0.07,315.000000,,2013-01-07 19:33:00,
2013-01-07 11:43:00,46.0,25.0,-100.00,NNW,346,3.0,8.0,43,0.03,,,0.07,315.000000,,2013-01-07 19:43:00,
2013-01-07 11:53:00,46.0,25.0,-100.00,NNW,346,3.0,8.0,43,0.03,,,0.07,315.000000,,2013-01-07 19:53:00,
2013-01-07 12:02:00,55.0,27.0,-100.00,SW,217,0.0,8.0,34,0.03,,,-99.99,565.000000,,2013-01-07 20:02:00,
2013-01-07 12:33:00,55.0,27.0,-100.00,SW,217,0.0,8.0,34,0.03,,,-99.99,565.000000,,2013-01-07 20:33:00,
2013-01-07 12:43:00,55.0,27.0,-100.00,SW,217,0.0,8.0,34,0.03,,,-99.99,565.000000,,2013-01-07 20:43:00,
2013-01-07 12:53:00,55.0,27.0,-100.00,SW,217,0.0,8.0,34,0.03,,,-99.99,565.000000,,2013-01-07 20:53:00,
2013-01-07 13:02:00,53.0,26.0,-100.00,SW,214,0.0,6.0,35,0.00,,,0.10,538.000000,,2013-01-07 21:02:00,
2013-01-07 13:23:00,53.0,26.0,-100.00,SW,214,0.0,6.0,35,0.00,,,0.10,538.000000,,2013-01-07 21:23:00,
2013-01-07 13:33:00,53.0,26.0,-100.00,SW,214,0.0,6.0,35,0.00,,,0.10,538.000000,,2013-01-07 21:33:00,
2013-01-07 13:43:00,53.0,26.0,-100.00,SW,214,0.0,6.0,35,0.00,,,0.10,538.000000,,2013-01-07 21:43:00,
2013-01-07 13:53:00,53.0,26.0,-100.00,SW,214,0.0,6.0,35,0.00,,,0.10,538.000000,,2013-01-07 21:53:00,
2013-01-07 14:02:00,56.0,29.0,-100.00,ESE,103,1.0,12.0,36,0.00,,,0.10,436.000000,,2013-01-07 22:02:00,
2013-01-07 14:23:00,56.0,29.0,-100.00,ESE,103,1.0,12.0,36,0.00,,,0.10,436.000000,,2013-01-07 22:23:00,
2013-01-07 14:33:00,56.0,29.0,-100.00,ESE,103,1.0,12.0,36,0.00,,,0.10,436.000000,,2013-01-07 22:33:00,
2013-01-07 14:43:00,56.0,29.0,-100.00,ESE,103,1.0,12.0,36,0.00,,,0.10,436.000000,,2013-01-07 22:43:00,
2013-01-07 14:53:00,56.0,29.0,-100.00,ESE,103,1.0,12.0,36,0.00,,,0.10,436.000000,,2013-01-07 22:53:00,
2013-01-07 15:02:00,53.0,30.0,-100.00,SSW,201,0.0,9.0,41,0.00,,,0.10,320.000000,,2013-01-07 23:02:00,
2013-01-07 15:33:00,53.0,30.0,-100.00,SSW,201,0.0,9.0,41,0.00,,,0.10,320.000000,,2013-01-07 23:33:00,
2013-01-07 15:43:00,53.0,30.0,-100.00,SSW,201,0.0,9.0,41,0.00,,,0.10,320.000000,,2013-01-07 23:43:00,
2013-01-07 15:53:00,53.0,30.0,-100.00,SSW,201,0.0,9.0,41,0.00,,,0.10,320.000000,,2013-01-07 23:53:00,
2013-01-07 16:02:00,44.0,27.0,-100.00,ESE,117,0.0,4.0,51,0.00,,,0.07,131.000000,,2013-01-08 00:02:00,
2013-01-07 16:23:00,44.0,27.0,-100.00,ESE,117,0.0,4.0,51,0.00,,,0.07,131.000000,,2013-01-08 00:23:00,
2013-01-07 16:33:00,44.0,27.0,-100.00,ESE,117,0.0,4.0,51,0.00,,,0.07,131.000000,,2013-01-08 00:33:00,
2013-01-07 16:42:00,44.0,27.0,-100.00,ESE,117,0.0,4.0,51,0.00,,,0.07,131.000000,,2013-01-08 00:42:00,
2013-01-07 16:52:00,44.0,27.0,-100.00,ESE,117,0.0,4.0,51,0.00,,,0.07,131.000000,,2013-01-08 00:52:00,
2013-01-07 17:02:00,40.0,28.0,-100.00,NNE,15,0.0,4.0,62,0.00,,,0.06,32.000000,,2013-01-08 01:02:00,
2013-01-07 17:22:00,40.0,28.0,-100.00,NNE,15,0.0,4.0,62,0.00,,,0.06,32.000000,,2013-01-08 01:22:00,
2013-01-07 17:33:00,40.0,28.0,-100.00,NNE,15,0.0,4.0,62,0.00,,,0.06,32.000000,,2013-01-08 01:33:00,
2013-01-07 17:42:00,40.0,28.0,-100.00,NNE,15,0.0,4.0,62,0.00,,,0.06,32.000000,,2013-01-08 01:42:00,
2013-01-07 17:52:00,40.0,28.0,-100.00,NNE,15,0.0,4.0,62,0.00,,,0.06,32.000000,,2013-01-08 01:52:00,
2013-01-07 18:02:00,38.0,27.0,-100.00,NE,43,0.0,5.0,65,0.00,,,0.06,0.000000,,2013-01-08 02:02:00,
2013-01-07 18:22:00,38.0,27.0,-100.00,NE,43,0.0,5.0,65,0.00,,,0.06,0.000000,,2013-01-08 02:22:00,
2013-01-07 18:33:00,38.0,27.0,-100.00,NE,43,0.0,5.0,65,0.00,,,0.06,0.000000,,2013-01-08 02:33:00,
2013-01-07 18:43:00,38.0,27.0,-100.00,NE,43,0.0,5.0,65,0.00,,,0.06,0.000000,,2013-01-08 02:43:00,
2013-01-07 18:53:00,38.0,27.0,-100.00,NE,43,0.0,5.0,65,0.00,,,0.06,0.000000,,2013-01-08 02:53:00,
2013-01-07 19:33:00,34.0,27.0,-100.00,SSE,162,0.0,5.0,74,0.00,,,0.06,0.000000,,2013-01-08 03:33:00,
2013-01-07 20:02:00,35.0,28.0,-100.00,SE,127,0.0,4.0,76,-99.99,,,0.06,0.000000,,2013-01-08 04:02:00,
2013-01-07 20:32:00,35.0,28.0,-100.00,SE,127,0.0,4.0,76,-99.99,,,0.06,0.000000,,2013-01-08 04:32:00,
2013-01-07 21:02:00,39.0,26.0,-100.00,NE,35,0.0,8.0,60,0.00,,,0.06,0.000000,,2013-01-08 05:02:00,
2013-01-07 21:22:00,39.0,26.0,-100.00,NE,35,0.0,8.0,60,0.00,,,0.06,0.000000,,2013-01-08 05:22:00,
2013-01-07 21:33:00,39.0,26.0,-100.00,NE,35,0.0,8.0,60,0.00,,,0.06,0.000000,,2013-01-08 05:33:00,
2013-01-07 21:43:00,39.0,26.0,-100.00,NE,35,0.0,8.0,60,0.00,,,0.06,0.000000,,2013-01-08 05:43:00,
2013-01-07 21:53:00,39.0,26.0,-100.00,NE,35,0.0,8.0,60,0.00,,,0.06,0.000000,,2013-01-08 05:53:00,
2013-01-07 22:02:00,40.0,27.0,-100.00,ENE,73,0.0,7.0,59,0.00,,,0.06,0.000000,,2013-01-08 06:02:00,
2013-01-07 22:22:00,40.0,27.0,-100.00,ENE,73,0.0,7.0,59,0.00,,,0.06,0.000000,,2013-01-08 06:22:00,
2013-01-07 22:33:00,40.0,27.0,-100.00,ENE,73,0.0,7.0,59,0.00,,,0.06,0.000000,,2013-01-08 06:33:00,
2013-01-07 22:42:00,40.0,27.0,-100.00,ENE,73,0.0,7.0,59,0.00,,,0.06,0.000000,,2013-01-08 06:42:00,
2013-01-07 22:52:00,40.0,27.0,-100.00,ENE,73,0.0,7.0,59,0.00,,,0.06,0.000000,,2013-01-08 06:52:00,
2013-01-07 23:02:00,38.0,26.0,-100.00,ESE,102,0.0,5.0,61,0.00,,,0.06,0.000000,,2013-01-08 07:02:00,
2013-01-07 23:32:00,38.0,26.0,-100.00,ESE,102,0.0,5.0,61,0.00,,,0.06,0.000000,,2013-01-08 07:32:00,
2013-01-07 23:42:00,38.0,26.0,-100.00,ESE,102,0.0,5.0,61,0.00,,,0.06,0.000000,,2013-01-08 07:42:00,
2013-01-07 23:52:00,38.0,26.0,-100.00,ESE,102,0.0,5.0,61,0.00,,,0.06,0.000000,,2013-01-08 07:52:00,